createdAt,value
2022-10-01T00:02:36.662Z,100313.59
2022-10-01T00:07:42.377Z,100299.34
2022-10-01T00:12:48.838Z,100294.94
2022-10-01T00:17:50.156Z,100292.16
2022-10-01T00:22:52.306Z,100287.34
2022-10-01T00:27:53.667Z,100283.53
2022-10-01T00:32:55.145Z,100265.69
2022-10-01T00:37:56.587Z,100261.25
2022-10-01T00:42:57.890Z,100267.69
2022-10-01T00:48:00.352Z,100264.88
2022-10-01T00:53:04.932Z,100256.84
2022-10-01T00:58:07.507Z,100253.84
2022-10-01T01:03:09.907Z,100245.63
2022-10-01T01:08:11.299Z,100221.72
2022-10-01T01:13:32.979Z,100205.44
2022-10-01T01:18:58.055Z,100199.63
2022-10-01T01:24:18.093Z,100204.25
2022-10-01T01:29:27.776Z,100209.88
2022-10-01T01:34:30.881Z,100191.38
2022-10-01T01:39:33.495Z,100198.22
2022-10-01T01:44:38.999Z,100202.03
2022-10-01T01:49:41.704Z,100201.63
2022-10-01T01:54:44.563Z,100192.19
2022-10-01T01:59:46.031Z,100193.56
2022-10-01T02:04:49.983Z,100177.31
2022-10-01T02:09:54.304Z,100166.88
2022-10-01T02:15:05.444Z,100164.06
2022-10-01T02:20:11.980Z,100157.84
2022-10-01T02:25:15.845Z,100147.19
2022-10-01T02:30:17.480Z,100139.19
2022-10-01T02:35:19.443Z,100133.56
2022-10-01T02:40:26.200Z,100111.31
2022-10-01T02:45:27.710Z,100095.44
2022-10-01T02:50:32.531Z,100083.22
2022-10-01T02:55:37.236Z,100075.00
2022-10-01T03:00:38.587Z,100055.75
2022-10-01T03:05:40.170Z,100050.13
2022-10-01T03:10:44.679Z,100039.50
2022-10-01T03:15:47.895Z,100030.06
2022-10-01T03:20:49.265Z,100013.59
2022-10-01T03:25:50.578Z,100018.00
2022-10-01T03:30:51.884Z,100008.34
2022-10-01T03:35:53.186Z,99998.72
2022-10-01T03:40:54.871Z,99970.22
2022-10-01T03:45:56.679Z,99938.09
2022-10-01T03:50:59.498Z,99951.53
2022-10-01T03:56:01.156Z,99961.72
2022-10-01T04:01:02.913Z,99989.06
2022-10-01T04:06:04.238Z,99997.44
2022-10-01T04:11:06.066Z,99987.78
2022-10-01T04:16:07.521Z,99990.19
2022-10-01T04:21:08.852Z,99993.13
2022-10-01T04:26:10.156Z,99967.97
2022-10-01T04:31:26.814Z,99959.78
2022-10-01T04:36:28.405Z,99960.03
2022-10-01T04:41:32.642Z,99980.91
2022-10-01T04:46:34.254Z,100003.41
2022-10-01T04:51:35.979Z,100003.81
2022-10-01T04:56:37.543Z,100000.25
2022-10-01T05:01:39.282Z,100029.53
2022-10-01T05:06:41.369Z,100027.13
2022-10-01T05:11:42.670Z,99980.16
2022-10-01T05:16:44.110Z,99945.22
2022-10-01T05:21:46.170Z,99936.78
2022-10-01T05:26:47.486Z,99929.16
2022-10-01T05:31:49.357Z,99943.81
2022-10-01T05:36:50.681Z,99947.19
2022-10-01T05:41:53.235Z,99919.97
2022-10-01T05:46:54.584Z,99925.63
2022-10-01T05:51:55.891Z,99913.88
2022-10-01T05:56:57.314Z,99925.13
2022-10-01T06:01:58.821Z,99919.94
2022-10-01T06:07:00.535Z,99924.72
2022-10-01T06:12:01.956Z,99905.63
2022-10-01T06:17:03.319Z,99899.75
2022-10-01T06:22:04.636Z,99920.72
2022-10-01T06:27:05.945Z,99923.59
2022-10-01T06:32:08.866Z,99892.53
2022-10-01T06:37:10.202Z,99921.66
2022-10-01T06:42:11.498Z,99907.50
2022-10-01T06:47:12.800Z,99917.03
2022-10-01T06:52:33.037Z,99923.59
2022-10-01T06:57:34.345Z,99923.72
2022-10-01T07:02:36.277Z,99896.84
2022-10-01T07:07:38.051Z,99912.41
2022-10-01T07:12:39.701Z,99933.47
2022-10-01T07:17:45.125Z,99943.50
2022-10-01T07:22:47.119Z,99952.59
2022-10-01T07:27:48.457Z,99951.50
2022-10-01T07:32:50.040Z,99941.75
2022-10-01T07:37:51.513Z,99947.00
2022-10-01T07:42:56.805Z,99949.06
2022-10-01T07:47:59.537Z,99957.97
2022-10-01T07:53:00.868Z,99956.66
2022-10-01T07:58:02.713Z,99954.56
2022-10-01T08:03:04.536Z,99951.13
2022-10-01T08:08:07.026Z,99969.09
2022-10-01T08:13:14.379Z,99969.28
2022-10-01T08:18:17.688Z,99973.25
2022-10-01T08:23:19.213Z,99975.53
2022-10-01T08:28:20.546Z,99986.63
2022-10-01T08:33:22.216Z,99977.78
2022-10-01T08:38:23.510Z,99991.16
2022-10-01T08:43:36.969Z,99993.16
2022-10-01T08:48:44.480Z,100004.19
2022-10-01T08:54:06.053Z,99998.72
2022-10-01T08:59:17.333Z,100000.88
2022-10-01T09:04:18.727Z,100006.44
2022-10-01T09:09:20.069Z,100005.44
2022-10-01T09:14:39.930Z,100013.41
2022-10-01T09:19:47.747Z,100012.59
2022-10-01T09:24:53.973Z,100028.72
2022-10-01T09:29:58.332Z,100029.19
2022-10-01T09:35:05.829Z,100037.09
2022-10-01T09:40:21.397Z,100033.63
2022-10-01T09:45:23.546Z,100039.22
2022-10-01T09:50:34.698Z,100029.94
2022-10-01T09:55:56.227Z,100036.50
2022-10-01T10:00:57.619Z,100048.28
2022-10-01T10:06:02.477Z,100047.13
2022-10-01T10:11:08.774Z,100056.50
2022-10-01T10:16:17.823Z,100054.59
2022-10-01T10:21:25.330Z,100061.72
2022-10-01T10:26:28.428Z,100053.34
2022-10-01T10:31:35.645Z,100050.81
2022-10-01T10:36:38.004Z,100041.59
2022-10-01T10:41:44.153Z,100045.31
2022-10-01T10:46:46.432Z,100048.31
2022-10-01T10:51:51.386Z,100040.88
2022-10-01T10:57:00.622Z,100032.69
2022-10-01T11:02:04.656Z,100048.44
2022-10-01T11:07:06.333Z,100053.41
2022-10-01T11:12:15.672Z,100059.44
2022-10-01T11:17:35.607Z,100059.84
2022-10-01T11:22:36.876Z,100050.88
2022-10-01T11:27:57.047Z,100051.72
2022-10-01T11:33:10.716Z,100058.75
2022-10-01T11:38:36.185Z,100053.53
2022-10-01T11:43:40.838Z,100052.25
2022-10-01T11:48:48.466Z,100059.94
2022-10-01T11:53:52.372Z,100075.31
2022-10-01T11:58:57.314Z,100071.50
2022-10-01T12:04:06.253Z,100065.34
2022-10-01T12:09:12.400Z,100065.09
2022-10-01T12:14:19.688Z,100064.63
2022-10-01T12:19:26.608Z,100064.09
2022-10-01T12:24:34.611Z,100062.22
2022-10-01T12:29:49.110Z,100074.13
2022-10-01T12:34:59.307Z,100075.50
2022-10-01T12:40:21.402Z,100083.50
2022-10-01T12:45:22.794Z,100076.03
2022-10-01T12:50:24.080Z,100078.50
2022-10-01T12:55:37.090Z,100084.06
2022-10-01T13:00:42.949Z,100093.53
2022-10-01T13:05:51.098Z,100091.44
2022-10-01T13:10:52.427Z,100112.41
2022-10-01T13:16:03.405Z,100115.78
2022-10-01T13:21:11.309Z,100116.09
2022-10-01T13:26:19.094Z,100121.66
2022-10-01T13:31:31.314Z,100129.66
2022-10-01T13:36:34.905Z,100142.22
2022-10-01T13:41:39.211Z,100148.44
2022-10-01T13:47:13.329Z,100160.72
2022-10-01T13:52:21.124Z,100157.72
2022-10-01T13:57:26.911Z,100168.00
2022-10-01T14:02:36.166Z,100167.16
2022-10-01T14:07:38.948Z,100173.69
2022-10-01T14:13:00.891Z,100173.59
2022-10-01T14:18:05.355Z,100171.28
2022-10-01T14:23:12.546Z,100186.88
2022-10-01T14:28:21.214Z,100186.47
2022-10-01T14:33:31.972Z,100188.41
2022-10-01T14:38:34.196Z,100205.94
2022-10-01T14:43:39.342Z,100202.44
2022-10-01T14:48:41.288Z,100213.38
2022-10-01T14:53:42.824Z,100228.72
2022-10-01T14:58:48.941Z,100226.16
2022-10-01T15:03:51.182Z,100239.78
2022-10-01T15:08:54.673Z,100232.34
2022-10-01T15:14:06.486Z,100245.22
2022-10-01T15:19:09.392Z,100255.41
2022-10-01T15:24:34.053Z,100258.41
2022-10-01T15:29:36.644Z,100259.28
2022-10-01T15:34:39.238Z,100274.59
2022-10-01T15:39:41.360Z,100271.66
2022-10-01T15:44:45.799Z,100282.53
2022-10-01T15:50:05.187Z,100282.84
2022-10-01T15:55:15.234Z,100294.53
2022-10-01T16:00:23.999Z,100313.78
2022-10-01T16:05:28.228Z,100330.66
2022-10-01T16:10:32.788Z,100344.22
2022-10-01T16:15:34.131Z,100348.19
2022-10-01T16:20:39.734Z,100358.97
2022-10-01T16:25:43.648Z,100361.69
2022-10-01T16:30:49.854Z,100376.88
2022-10-01T16:35:52.682Z,100379.03
2022-10-01T16:40:54.040Z,100385.75
2022-10-01T16:45:57.656Z,100394.06
2022-10-01T16:50:59.266Z,100418.72
2022-10-01T16:56:00.722Z,100423.97
2022-10-01T17:01:07.593Z,100436.81
2022-10-01T17:06:09.209Z,100433.38
2022-10-01T17:11:12.754Z,100452.47
2022-10-01T17:16:14.283Z,100468.84
2022-10-01T17:21:15.672Z,100472.63
2022-10-01T17:26:17.001Z,100488.00
2022-10-01T17:31:18.450Z,100492.91
2022-10-01T17:36:19.807Z,100498.13
2022-10-01T17:41:21.115Z,100519.41
2022-10-01T17:46:22.506Z,100527.03
2022-10-01T17:51:23.946Z,100537.25
2022-10-01T17:56:25.332Z,100553.19
2022-10-01T18:01:26.692Z,100562.22
2022-10-01T18:06:28.664Z,100567.13
2022-10-01T18:11:30.045Z,100588.50
2022-10-01T18:16:33.902Z,100612.00
2022-10-01T18:21:37.163Z,100620.50
2022-10-01T18:26:38.915Z,100630.69
2022-10-01T18:31:41.037Z,100641.81
2022-10-01T18:36:54.933Z,100660.94
2022-10-01T18:41:56.660Z,100666.25
2022-10-01T18:47:04.151Z,100675.56
2022-10-01T18:52:05.558Z,100680.81
2022-10-01T18:57:12.911Z,100703.22
2022-10-01T19:02:21.940Z,100704.19
2022-10-01T19:07:28.156Z,100712.84
2022-10-01T19:12:38.930Z,100713.00
2022-10-01T19:17:50.073Z,100721.47
2022-10-01T19:23:03.751Z,100722.44
2022-10-01T19:28:19.819Z,100727.03
2022-10-01T19:33:21.620Z,100743.44
2022-10-01T19:38:26.149Z,100759.06
2022-10-01T19:43:37.268Z,100790.97
2022-10-01T19:48:47.796Z,100792.72
2022-10-01T19:53:51.269Z,100798.97
2022-10-01T19:58:52.641Z,100800.94
2022-10-01T20:04:00.471Z,100815.88
2022-10-01T20:09:16.932Z,100817.25
2022-10-01T20:14:50.617Z,100835.47
2022-10-01T20:19:57.311Z,100835.66
2022-10-01T20:25:14.763Z,100845.66
2022-10-01T20:30:20.287Z,100838.91
2022-10-01T20:35:29.568Z,100850.09
2022-10-01T20:40:49.981Z,100854.34
2022-10-01T20:45:52.517Z,100860.78
2022-10-01T20:50:59.692Z,100856.28
2022-10-01T20:56:18.804Z,100866.03
2022-10-01T21:01:24.129Z,100884.63
2022-10-01T21:06:30.143Z,100886.50
2022-10-01T21:11:31.527Z,100897.88
2022-10-01T21:16:52.534Z,100902.38
2022-10-01T21:21:55.369Z,100908.38
2022-10-01T21:27:06.033Z,100918.72
2022-10-01T21:32:18.069Z,100916.25
2022-10-01T21:37:39.563Z,100906.75
2022-10-01T21:42:43.872Z,100916.78
2022-10-01T21:48:03.491Z,100929.25
2022-10-01T21:53:34.228Z,100923.94
2022-10-01T21:58:35.818Z,100924.69
2022-10-01T22:03:43.757Z,100948.31
2022-10-01T22:08:54.303Z,100962.75
2022-10-01T22:13:57.709Z,100965.16
2022-10-01T22:19:09.643Z,100982.19
2022-10-01T22:24:16.584Z,100981.81
2022-10-01T22:29:20.272Z,100993.50
2022-10-01T22:34:23.843Z,100988.47
2022-10-01T22:39:26.374Z,100988.28
2022-10-01T22:44:28.323Z,100993.59
2022-10-01T22:49:39.214Z,100992.03
2022-10-01T22:54:48.845Z,100995.28
2022-10-01T23:00:05.423Z,101003.50
2022-10-01T23:05:35.967Z,101006.47
2022-10-01T23:10:45.917Z,101018.59
2022-10-01T23:15:53.306Z,101024.09
2022-10-01T23:21:17.682Z,101011.91
2022-10-01T23:26:38.035Z,101018.31
2022-10-01T23:31:44.572Z,101014.34
2022-10-01T23:36:53.279Z,101019.88
2022-10-01T23:42:06.751Z,101022.19
2022-10-01T23:47:16.061Z,101026.59
2022-10-01T23:52:22.719Z,101039.41
2022-10-01T23:57:26.683Z,101045.44
